createdAt,value
2017-11-17T00:04:03.377Z,95862.51
2017-11-17T00:06:30.993Z,95865.75
2017-11-17T00:08:58.551Z,95862.87
2017-11-17T00:11:26.068Z,95861.81
2017-11-17T00:13:53.742Z,95859.34
2017-11-17T00:16:21.275Z,95856.84
2017-11-17T00:18:48.805Z,95856.78
2017-11-17T00:21:16.386Z,95862.03
2017-11-17T00:23:43.930Z,95866.45
2017-11-17T00:26:11.450Z,95862.24
2017-11-17T00:28:39.076Z,95855.35
2017-11-17T00:31:06.678Z,95862.59
2017-11-17T00:33:34.210Z,95857.20
2017-11-17T00:36:01.738Z,95845.50
2017-11-17T00:38:29.353Z,95851.75
2017-11-17T00:40:56.912Z,95853.88
2017-11-17T00:43:24.937Z,95842.71
2017-11-17T00:45:52.500Z,95844.03
2017-11-17T00:48:20.026Z,95843.45
2017-11-17T00:50:47.531Z,95839.72
2017-11-17T00:53:15.155Z,95834.61
2017-11-17T00:55:42.655Z,95829.83
2017-11-17T00:58:10.749Z,95827.43
2017-11-17T01:00:38.331Z,95836.96
2017-11-17T01:03:08.203Z,95833.36
2017-11-17T01:05:35.928Z,95837.30
2017-11-17T01:08:03.796Z,95831.20
2017-11-17T01:10:31.299Z,95830.98
2017-11-17T01:12:59.780Z,95828.33
2017-11-17T01:15:30.330Z,95826.70
2017-11-17T01:17:58.023Z,95818.56
2017-11-17T01:20:25.538Z,95825.05
2017-11-17T01:22:53.104Z,95813.59
2017-11-17T01:25:20.672Z,95817.02
2017-11-17T01:27:48.186Z,95821.73
2017-11-17T01:30:15.747Z,95820.67
2017-11-17T01:32:43.308Z,95815.89
2017-11-17T01:35:10.835Z,95805.81
2017-11-17T01:37:38.415Z,95806.41
2017-11-17T01:40:05.948Z,95802.22
2017-11-17T01:42:33.462Z,95801.84
2017-11-17T01:45:01.139Z,95805.41
2017-11-17T01:47:28.668Z,95799.52
2017-11-17T01:49:56.259Z,95804.91
2017-11-17T01:52:23.918Z,95796.20
2017-11-17T01:54:51.480Z,95804.03
2017-11-17T01:57:19.060Z,95800.87
2017-11-17T01:59:46.640Z,95795.67
2017-11-17T02:02:20.030Z,95792.09
2017-11-17T02:04:47.558Z,95791.25
2017-11-17T02:07:15.066Z,95794.42
2017-11-17T02:09:42.643Z,95799.97
2017-11-17T02:12:10.291Z,95803.03
2017-11-17T02:14:38.070Z,95798.16
2017-11-17T02:17:05.656Z,95801.59
2017-11-17T02:19:33.261Z,95789.48
2017-11-17T02:22:00.883Z,95792.50
2017-11-17T02:24:28.626Z,95793.81
2017-11-17T02:26:56.181Z,95786.92
2017-11-17T02:29:23.731Z,95785.12
2017-11-17T02:31:51.337Z,95794.31
2017-11-17T02:34:18.850Z,95792.91
2017-11-17T02:36:46.424Z,95782.84
2017-11-17T02:39:14.134Z,95785.25
2017-11-17T02:41:41.666Z,95785.39
2017-11-17T02:44:09.224Z,95778.82
2017-11-17T02:46:36.849Z,95780.07
2017-11-17T02:49:04.384Z,95789.16
2017-11-17T02:51:31.941Z,95778.91
2017-11-17T02:53:59.552Z,95782.22
2017-11-17T02:56:27.155Z,95762.48
2017-11-17T02:58:54.741Z,95772.55
2017-11-17T03:01:22.340Z,95777.08
2017-11-17T03:03:49.874Z,95764.38
2017-11-17T03:06:17.397Z,95759.94
2017-11-17T03:08:45.004Z,95756.70
2017-11-17T03:11:12.531Z,95760.52
2017-11-17T03:13:40.873Z,95760.59
2017-11-17T03:16:08.584Z,95750.52
2017-11-17T03:18:36.150Z,95751.87
2017-11-17T03:21:03.765Z,95755.91
2017-11-17T03:23:31.402Z,95748.91
2017-11-17T03:25:59.198Z,95757.16
2017-11-17T03:28:26.791Z,95750.78
2017-11-17T03:30:54.348Z,95758.11
2017-11-17T03:33:21.904Z,95754.39
2017-11-17T03:35:49.486Z,95756.81
2017-11-17T03:38:17.057Z,95756.12
2017-11-17T03:40:44.665Z,95755.89
2017-11-17T03:43:12.216Z,95765.97
2017-11-17T03:45:39.806Z,95753.73
2017-11-17T03:48:07.411Z,95746.58
2017-11-17T03:50:34.919Z,95755.59
2017-11-17T03:53:02.475Z,95760.83
2017-11-17T03:55:29.997Z,95759.09
2017-11-17T03:57:57.569Z,95755.38
2017-11-17T04:00:25.192Z,95754.84
2017-11-17T04:02:52.770Z,95753.83
2017-11-17T04:05:20.280Z,95749.14
2017-11-17T04:07:47.898Z,95766.43
2017-11-17T04:10:15.457Z,95765.32
2017-11-17T04:12:43.022Z,95753.29
2017-11-17T04:15:10.700Z,95758.70
2017-11-17T04:17:38.272Z,95740.28
2017-11-17T04:20:05.867Z,95757.49
2017-11-17T04:22:33.483Z,95758.83
2017-11-17T04:25:01.080Z,95766.11
2017-11-17T04:27:28.669Z,95749.91
2017-11-17T04:29:56.261Z,95744.02
2017-11-17T04:32:23.872Z,95742.09
2017-11-17T04:34:51.393Z,95747.17
2017-11-17T04:37:18.899Z,95759.19
2017-11-17T04:39:46.559Z,95757.81
2017-11-17T04:42:14.080Z,95743.16
2017-11-17T04:44:41.629Z,95750.63
2017-11-17T04:47:09.275Z,95750.78
2017-11-17T04:49:36.863Z,95745.40
2017-11-17T04:52:04.437Z,95745.42
2017-11-17T04:54:32.046Z,95745.09
2017-11-17T04:56:59.589Z,95737.73
2017-11-17T04:59:27.099Z,95738.17
2017-11-17T05:01:54.658Z,95735.15
2017-11-17T05:04:22.274Z,95743.41
2017-11-17T05:06:49.882Z,95749.81
2017-11-17T05:09:17.498Z,95743.27
2017-11-17T05:11:45.256Z,95745.89
2017-11-17T05:14:12.803Z,95747.16
2017-11-17T05:16:46.566Z,95755.80
2017-11-17T05:19:14.136Z,95754.44
2017-11-17T05:21:41.654Z,95757.13
2017-11-17T05:24:09.239Z,95752.38
2017-11-17T05:26:36.757Z,95739.73
2017-11-17T05:29:04.275Z,95749.66
2017-11-17T05:31:31.881Z,95735.19
2017-11-17T05:33:59.422Z,95745.59
2017-11-17T05:36:26.984Z,95743.25
2017-11-17T05:38:54.530Z,95753.55
2017-11-17T05:41:22.092Z,95752.00
2017-11-17T05:43:49.711Z,95757.33
2017-11-17T05:46:17.374Z,95746.48
2017-11-17T05:48:45.131Z,95755.81
2017-11-17T05:51:12.687Z,95757.22
2017-11-17T05:53:40.255Z,95757.22
2017-11-17T05:56:07.812Z,95751.83
2017-11-17T05:58:35.604Z,95750.74
2017-11-17T06:01:03.206Z,95757.00
2017-11-17T06:03:30.947Z,95764.89
2017-11-17T06:05:59.392Z,95749.09
2017-11-17T06:08:26.993Z,95752.26
2017-11-17T06:10:54.524Z,95751.16
2017-11-17T06:13:22.048Z,95742.38
2017-11-17T06:15:49.912Z,95755.84
2017-11-17T06:18:17.555Z,95760.15
2017-11-17T06:20:45.076Z,95765.43
2017-11-17T06:23:12.660Z,95764.94
2017-11-17T06:25:40.411Z,95764.17
2017-11-17T06:28:07.973Z,95768.41
2017-11-17T06:30:35.633Z,95767.30
2017-11-17T06:33:03.394Z,95762.77
2017-11-17T06:35:31.010Z,95755.31
2017-11-17T06:37:58.608Z,95759.88
2017-11-17T06:40:26.453Z,95763.98
2017-11-17T06:42:53.995Z,95762.03
2017-11-17T06:45:21.582Z,95775.31
2017-11-17T06:47:49.103Z,95761.01
2017-11-17T06:50:16.675Z,95759.62
2017-11-17T06:52:44.263Z,95763.65
2017-11-17T06:55:11.854Z,95764.20
2017-11-17T06:57:39.589Z,95764.00
2017-11-17T07:00:07.312Z,95767.14
2017-11-17T07:02:34.841Z,95756.19
2017-11-17T07:05:02.448Z,95762.09
2017-11-17T07:07:30.032Z,95759.67
2017-11-17T07:09:57.770Z,95759.34
2017-11-17T07:12:25.292Z,95754.62
2017-11-17T07:14:52.919Z,95760.02
2017-11-17T07:17:20.431Z,95756.66
2017-11-17T07:19:48.207Z,95755.63
2017-11-17T07:22:15.784Z,95753.86
2017-11-17T07:24:43.381Z,95752.44
2017-11-17T07:27:11.221Z,95754.33
2017-11-17T07:29:38.870Z,95771.36
2017-11-17T07:32:06.515Z,95755.75
2017-11-17T07:34:34.082Z,95758.22
2017-11-17T07:37:01.837Z,95754.76
2017-11-17T07:39:29.396Z,95762.70
2017-11-17T07:41:56.985Z,95763.44
2017-11-17T07:44:24.543Z,95760.05
2017-11-17T07:46:52.116Z,95756.58
2017-11-17T07:49:19.644Z,95761.39
2017-11-17T07:51:47.390Z,95760.34
2017-11-17T07:54:14.981Z,95767.25
2017-11-17T07:56:42.527Z,95756.55
2017-11-17T07:59:10.054Z,95761.83
2017-11-17T08:01:37.673Z,95758.63
2017-11-17T08:04:05.274Z,95761.50
2017-11-17T08:06:32.855Z,95759.64
2017-11-17T08:09:00.448Z,95764.55
2017-11-17T08:11:27.981Z,95759.64
2017-11-17T08:13:55.715Z,95758.92
2017-11-17T08:16:23.287Z,95763.94
2017-11-17T08:18:50.796Z,95763.22
2017-11-17T08:21:18.353Z,95758.00
2017-11-17T08:23:45.931Z,95765.69
2017-11-17T08:26:13.438Z,95768.27
2017-11-17T08:28:40.969Z,95761.64
2017-11-17T08:31:08.595Z,95766.85
2017-11-17T08:33:36.347Z,95763.61
2017-11-17T08:36:03.912Z,95762.34
2017-11-17T08:38:31.482Z,95774.20
2017-11-17T08:40:59.039Z,95754.76
2017-11-17T08:43:26.708Z,95752.09
2017-11-17T08:45:54.390Z,95758.17
2017-11-17T08:48:21.926Z,95749.84
2017-11-17T08:50:49.459Z,95751.11
2017-11-17T08:53:17.082Z,95747.25
2017-11-17T08:55:44.694Z,95745.91
2017-11-17T08:58:12.256Z,95755.81
2017-11-17T09:00:39.831Z,95741.72
2017-11-17T09:03:07.381Z,95745.27
2017-11-17T09:05:34.900Z,95744.47
2017-11-17T09:08:03.188Z,95735.34
2017-11-17T09:10:30.719Z,95737.30
2017-11-17T09:12:58.283Z,95735.01
2017-11-17T09:15:25.889Z,95740.43
2017-11-17T09:17:53.496Z,95738.94
2017-11-17T09:20:21.008Z,95724.17
2017-11-17T09:22:48.623Z,95727.92
2017-11-17T09:25:16.170Z,95707.17
2017-11-17T09:27:43.948Z,95720.28
2017-11-17T09:30:11.663Z,95720.84
2017-11-17T09:32:39.231Z,95716.89
2017-11-17T09:35:06.752Z,95711.81
2017-11-17T09:37:34.355Z,95710.58
2017-11-17T09:40:01.910Z,95704.88
2017-11-17T09:42:29.492Z,95700.72
2017-11-17T09:44:57.169Z,95703.23
2017-11-17T09:47:24.715Z,95706.42
2017-11-17T09:49:52.296Z,95699.48
2017-11-17T09:52:19.910Z,95695.70
2017-11-17T09:54:47.529Z,95699.06
2017-11-17T09:57:15.305Z,95689.69
2017-11-17T09:59:42.923Z,95696.09
2017-11-17T10:02:10.531Z,95685.91
2017-11-17T10:04:38.105Z,95681.84
2017-11-17T10:07:05.672Z,95683.39
2017-11-17T10:09:33.387Z,95681.41
2017-11-17T10:12:00.992Z,95674.03
2017-11-17T10:14:28.552Z,95667.05
2017-11-17T10:16:56.209Z,95675.80
2017-11-17T10:19:23.744Z,95667.53
2017-11-17T10:21:51.301Z,95672.61
2017-11-17T10:24:19.812Z,95665.48
2017-11-17T10:26:47.338Z,95674.77
2017-11-17T10:29:14.921Z,95669.23
2017-11-17T10:31:42.520Z,95665.59
2017-11-17T10:34:10.054Z,95659.00
2017-11-17T10:36:37.598Z,95650.63
2017-11-17T10:39:05.228Z,95650.53
2017-11-17T10:41:32.794Z,95645.27
2017-11-17T10:44:00.342Z,95653.53
2017-11-17T10:46:27.950Z,95640.84
2017-11-17T10:48:55.776Z,95640.27
2017-11-17T10:51:23.320Z,95640.63
2017-11-17T10:53:51.422Z,95649.38
2017-11-17T10:56:34.356Z,95645.64
2017-11-17T10:59:04.705Z,95645.47
2017-11-17T11:01:32.370Z,95646.20
2017-11-17T11:03:59.967Z,95642.48
2017-11-17T11:06:27.731Z,95640.02
2017-11-17T11:08:55.334Z,95642.55
2017-11-17T11:11:28.467Z,95633.39
2017-11-17T11:13:56.085Z,95626.14
2017-11-17T11:16:23.637Z,95626.48
2017-11-17T11:18:51.393Z,95627.53
2017-11-17T11:21:19.016Z,95627.91
2017-11-17T11:23:46.580Z,95620.79
2017-11-17T11:26:14.155Z,95618.35
2017-11-17T11:28:41.756Z,95612.34
2017-11-17T11:31:09.403Z,95618.64
2017-11-17T11:33:37.044Z,95615.88
2017-11-17T11:36:04.583Z,95612.53
2017-11-17T11:38:32.187Z,95607.48
2017-11-17T11:40:59.760Z,95608.66
2017-11-17T11:43:27.278Z,95603.08
2017-11-17T11:45:54.854Z,95596.51
2017-11-17T11:48:22.388Z,95601.85
2017-11-17T11:50:49.923Z,95598.39
2017-11-17T11:53:17.495Z,95600.88
2017-11-17T11:55:45.044Z,95589.03
2017-11-17T11:58:12.563Z,95600.84
2017-11-17T12:00:40.155Z,95600.55
2017-11-17T12:03:07.748Z,95600.25
2017-11-17T12:05:35.351Z,95598.60
2017-11-17T12:08:02.959Z,95601.06
2017-11-17T12:10:30.482Z,95608.25
2017-11-17T12:12:58.030Z,95600.70
2017-11-17T12:15:25.614Z,95593.52
2017-11-17T12:17:53.122Z,95605.75
2017-11-17T12:20:20.872Z,95599.36
2017-11-17T12:22:48.457Z,95595.03
2017-11-17T12:25:15.966Z,95600.86
2017-11-17T12:27:43.506Z,95599.33
2017-11-17T12:30:11.143Z,95599.74
2017-11-17T12:32:38.703Z,95604.91
2017-11-17T12:35:06.317Z,95589.27
2017-11-17T12:37:34.008Z,95596.91
2017-11-17T12:40:01.550Z,95588.48
2017-11-17T12:42:29.307Z,95593.39
2017-11-17T12:44:56.955Z,95586.73
2017-11-17T12:47:24.725Z,95592.59
2017-11-17T12:49:52.314Z,95594.87
2017-11-17T12:52:23.131Z,95601.36
2017-11-17T12:54:50.914Z,95602.07
2017-11-17T12:57:18.592Z,95595.66
2017-11-17T12:59:46.324Z,95595.45
2017-11-17T13:02:13.896Z,95592.59
2017-11-17T13:04:41.660Z,95596.73
2017-11-17T13:07:09.461Z,95602.72
2017-11-17T13:09:37.061Z,95597.98
2017-11-17T13:12:04.683Z,95599.39
2017-11-17T13:14:32.707Z,95598.62
2017-11-17T13:17:00.336Z,95596.34
2017-11-17T13:19:27.969Z,95594.95
2017-11-17T13:21:55.484Z,95586.83
2017-11-17T13:24:25.671Z,95592.19
2017-11-17T13:26:53.396Z,95590.12
2017-11-17T13:29:21.022Z,95597.55
2017-11-17T13:31:48.683Z,95595.70
2017-11-17T13:34:16.794Z,95593.42
2017-11-17T13:36:44.346Z,95590.48
2017-11-17T13:39:11.954Z,95596.96
2017-11-17T13:41:39.479Z,95592.77
2017-11-17T13:44:07.280Z,95571.10
2017-11-17T13:46:35.701Z,95582.64
2017-11-17T13:49:03.528Z,95582.93
2017-11-17T13:51:31.349Z,95601.48
2017-11-17T13:53:58.928Z,95600.63
2017-11-17T13:56:26.556Z,95593.01
2017-11-17T13:58:54.461Z,95597.04
2017-11-17T14:01:22.094Z,95594.20
2017-11-17T14:03:50.576Z,95597.84
2017-11-17T14:06:18.175Z,95595.37
2017-11-17T14:08:45.759Z,95596.73
2017-11-17T14:11:14.352Z,95595.64
2017-11-17T14:13:43.039Z,95590.67
2017-11-17T14:16:10.638Z,95586.08
2017-11-17T14:18:38.249Z,95581.63
2017-11-17T14:21:05.883Z,95589.07
2017-11-17T14:23:33.667Z,95583.36
2017-11-17T14:26:01.343Z,95587.52
2017-11-17T14:28:29.047Z,95586.17
2017-11-17T14:30:56.634Z,95579.92
2017-11-17T14:33:24.436Z,95578.89
2017-11-17T14:35:52.056Z,95581.96
2017-11-17T14:38:19.676Z,95584.78
2017-11-17T14:40:47.504Z,95580.03
2017-11-17T14:43:15.031Z,95579.11
2017-11-17T14:45:42.672Z,95575.30
2017-11-17T14:48:10.220Z,95571.67
2017-11-17T14:50:38.019Z,95572.55
2017-11-17T14:53:05.649Z,95572.20
2017-11-17T14:55:33.429Z,95570.13
2017-11-17T14:58:01.022Z,95576.44
2017-11-17T15:00:28.892Z,95571.25
2017-11-17T15:02:56.545Z,95575.78
2017-11-17T15:05:24.297Z,95573.44
2017-11-17T15:07:51.967Z,95576.92
2017-11-17T15:10:19.663Z,95575.57
2017-11-17T15:12:47.267Z,95574.01
2017-11-17T15:15:14.993Z,95569.77
2017-11-17T15:17:42.868Z,95563.23
2017-11-17T15:20:10.480Z,95570.30
2017-11-17T15:22:38.239Z,95567.81
2017-11-17T15:25:06.074Z,95565.36
2017-11-17T15:27:33.853Z,95573.67
2017-11-17T15:30:01.478Z,95572.50
2017-11-17T15:32:29.906Z,95577.62
2017-11-17T15:34:57.432Z,95579.04
2017-11-17T15:37:25.583Z,95574.06
2017-11-17T15:39:53.210Z,95572.86
2017-11-17T15:42:21.852Z,95572.66
2017-11-17T15:44:49.438Z,95582.59
2017-11-17T15:47:17.086Z,95577.39
2017-11-17T15:49:44.922Z,95577.47
2017-11-17T15:52:12.489Z,95582.69
2017-11-17T15:54:40.161Z,95586.39
2017-11-17T15:57:07.799Z,95583.14
2017-11-17T15:59:35.569Z,95589.44
2017-11-17T16:02:03.239Z,95583.55
2017-11-17T16:04:30.840Z,95579.95
2017-11-17T16:06:58.525Z,95591.58
2017-11-17T16:09:26.194Z,95588.05
2017-11-17T16:11:54.019Z,95586.55
2017-11-17T16:14:21.862Z,95588.39
2017-11-17T16:16:49.611Z,95590.23
2017-11-17T16:19:17.294Z,95589.28
2017-11-17T16:21:45.116Z,95588.61
2017-11-17T16:24:12.856Z,95590.17
2017-11-17T16:26:40.727Z,95595.84
2017-11-17T16:29:08.296Z,95594.80
2017-11-17T16:31:35.920Z,95598.78
2017-11-17T16:34:03.607Z,95585.02
2017-11-17T16:36:31.179Z,95601.64
2017-11-17T16:38:58.821Z,95594.96
2017-11-17T16:41:26.508Z,95593.42
2017-11-17T16:43:54.097Z,95589.13
2017-11-17T16:46:22.370Z,95591.45
2017-11-17T16:48:50.007Z,95586.16
2017-11-17T16:51:17.762Z,95579.63
2017-11-17T16:53:45.439Z,95585.73
2017-11-17T16:56:13.545Z,95581.97
2017-11-17T16:58:41.384Z,95590.50
2017-11-17T17:01:09.032Z,95585.53
2017-11-17T17:03:36.636Z,95581.37
2017-11-17T17:06:04.468Z,95584.25
2017-11-17T17:08:32.168Z,95582.62
2017-11-17T17:10:59.943Z,95571.45
2017-11-17T17:13:27.571Z,95566.09
2017-11-17T17:15:56.054Z,95582.88
2017-11-17T17:18:23.848Z,95578.60
2017-11-17T17:20:51.518Z,95581.42
2017-11-17T17:23:19.244Z,95578.39
2017-11-17T17:25:46.852Z,95578.94
2017-11-17T17:28:14.671Z,95586.70
2017-11-17T17:30:43.236Z,95576.92
2017-11-17T17:33:10.890Z,95583.36
2017-11-17T17:35:38.444Z,95584.72
2017-11-17T17:38:06.072Z,95581.55
2017-11-17T17:40:33.870Z,95588.17
2017-11-17T17:43:01.655Z,95580.39
2017-11-17T17:45:29.348Z,95566.43
2017-11-17T17:47:57.308Z,95565.53
2017-11-17T17:50:25.029Z,95572.72
2017-11-17T17:52:52.727Z,95576.91
2017-11-17T17:55:21.262Z,95577.39
2017-11-17T17:57:50.963Z,95577.63
2017-11-17T18:00:18.651Z,95574.31
2017-11-17T18:02:46.499Z,95577.36
2017-11-17T18:05:15.449Z,95579.64
2017-11-17T18:07:43.061Z,95581.30
2017-11-17T18:10:10.740Z,95581.36
2017-11-17T18:12:38.527Z,95576.72
2017-11-17T18:15:06.123Z,95579.43
2017-11-17T18:17:33.824Z,95566.17
2017-11-17T18:20:01.391Z,95566.66
2017-11-17T18:22:29.039Z,95566.83
2017-11-17T18:24:56.586Z,95571.95
2017-11-17T18:27:24.195Z,95571.56
2017-11-17T18:29:51.947Z,95569.36
2017-11-17T18:32:19.525Z,95571.96
2017-11-17T18:34:47.161Z,95574.83
2017-11-17T18:37:14.730Z,95564.13
2017-11-17T18:39:42.352Z,95572.28
2017-11-17T18:42:09.929Z,95561.50
2017-11-17T18:44:37.754Z,95564.44
2017-11-17T18:47:06.082Z,95564.27
2017-11-17T18:49:34.547Z,95558.52
2017-11-17T18:52:09.315Z,95570.30
2017-11-17T18:54:36.914Z,95572.59
2017-11-17T18:57:05.068Z,95571.72
2017-11-17T18:59:34.276Z,95546.05
2017-11-17T19:02:07.707Z,95572.38
2017-11-17T19:04:35.402Z,95572.44
2017-11-17T19:07:03.395Z,95570.14
2017-11-17T19:09:30.976Z,95582.57
2017-11-17T19:11:58.556Z,95574.55
2017-11-17T19:14:26.454Z,95577.06
2017-11-17T19:16:54.087Z,95573.31
2017-11-17T19:19:21.648Z,95576.00
2017-11-17T19:21:49.297Z,95580.59
2017-11-17T19:24:16.872Z,95569.52
2017-11-17T19:26:44.581Z,95577.50
2017-11-17T19:29:12.267Z,95571.89
2017-11-17T19:31:39.930Z,95569.12
2017-11-17T19:34:07.553Z,95573.87
2017-11-17T19:36:35.222Z,95576.95
2017-11-17T19:39:02.887Z,95572.23
2017-11-17T19:41:30.407Z,95570.62
2017-11-17T19:43:59.136Z,95571.80
2017-11-17T19:46:28.150Z,95574.16
2017-11-17T19:48:55.745Z,95567.46
2017-11-17T19:51:23.369Z,95565.78
2017-11-17T19:53:51.027Z,95565.78
2017-11-17T19:56:20.466Z,95563.94
2017-11-17T19:58:48.209Z,95563.31
2017-11-17T20:01:15.805Z,95569.09
2017-11-17T20:03:43.354Z,95563.47
2017-11-17T20:06:11.907Z,95563.25
2017-11-17T20:08:39.540Z,95565.43
2017-11-17T20:11:07.142Z,95560.11
2017-11-17T20:13:34.993Z,95561.43
2017-11-17T20:16:03.388Z,95568.70
2017-11-17T20:18:30.991Z,95561.05
2017-11-17T20:20:58.519Z,95558.58
2017-11-17T20:23:27.005Z,95563.03
2017-11-17T20:25:54.767Z,95561.91
2017-11-17T20:28:22.345Z,95565.56
2017-11-17T20:30:50.252Z,95556.92
2017-11-17T20:33:19.151Z,95563.97
2017-11-17T20:35:50.870Z,95558.11
2017-11-17T20:38:18.894Z,95561.12
2017-11-17T20:40:47.673Z,95558.73
2017-11-17T20:43:16.852Z,95560.48
2017-11-17T20:45:44.552Z,95555.39
2017-11-17T20:48:13.730Z,95561.80
2017-11-17T20:53:59.966Z,95559.78
2017-11-17T20:56:27.890Z,95553.69
2017-11-17T20:58:55.693Z,95555.80
2017-11-17T21:01:23.865Z,95553.28
2017-11-17T21:04:03.598Z,95559.61
2017-11-17T21:06:31.261Z,95550.76
2017-11-17T21:08:58.835Z,95559.30
2017-11-17T21:11:26.616Z,95550.03
2017-11-17T21:13:54.349Z,95553.20
2017-11-17T21:16:22.544Z,95544.59
2017-11-17T21:18:50.340Z,95543.48
2017-11-17T21:21:18.500Z,95546.65
2017-11-17T21:23:46.301Z,95541.89
2017-11-17T21:26:14.135Z,95539.44
2017-11-17T21:28:41.809Z,95536.52
2017-11-17T21:31:10.483Z,95539.82
2017-11-17T21:33:38.074Z,95546.40
2017-11-17T21:36:06.256Z,95541.40
2017-11-17T21:38:34.375Z,95534.69
2017-11-17T21:41:02.197Z,95534.20
2017-11-17T21:43:30.862Z,95534.44
2017-11-17T21:45:59.511Z,95535.39
2017-11-17T21:48:30.065Z,95536.11
2017-11-17T21:50:57.815Z,95526.16
2017-11-17T21:53:36.918Z,95524.86
2017-11-17T21:56:07.649Z,95529.58
2017-11-17T21:58:35.297Z,95525.77
2017-11-17T22:01:03.182Z,95519.90
2017-11-17T22:03:30.841Z,95521.48
2017-11-17T22:05:59.071Z,95523.48
2017-11-17T22:08:26.648Z,95518.30
2017-11-17T22:10:54.183Z,95520.85
2017-11-17T22:13:21.823Z,95524.42
2017-11-17T22:15:49.433Z,95525.30
2017-11-17T22:18:16.948Z,95520.99
2017-11-17T22:20:44.476Z,95517.88
2017-11-17T22:23:12.092Z,95515.14
2017-11-17T22:25:39.647Z,95511.73
2017-11-17T22:28:07.194Z,95526.87
2017-11-17T22:30:34.843Z,95512.36
2017-11-17T22:33:02.472Z,95511.10
2017-11-17T22:35:30.015Z,95510.47
2017-11-17T22:37:57.585Z,95506.55
2017-11-17T22:40:25.100Z,95499.80
2017-11-17T22:42:52.682Z,95494.64
2017-11-17T22:45:20.260Z,95498.84
2017-11-17T22:47:48.068Z,95504.22
2017-11-17T22:50:15.589Z,95502.66
2017-11-17T22:52:43.168Z,95499.92
2017-11-17T22:55:10.727Z,95501.42
2017-11-17T22:57:38.344Z,95496.33
2017-11-17T23:00:06.463Z,95482.20
2017-11-17T23:02:34.008Z,95492.11
2017-11-17T23:05:01.566Z,95486.27
2017-11-17T23:07:29.193Z,95486.92
2017-11-17T23:09:56.770Z,95485.98
2017-11-17T23:12:24.584Z,95480.77
2017-11-17T23:14:52.157Z,95493.22
2017-11-17T23:17:19.676Z,95486.86
2017-11-17T23:19:47.881Z,95487.33
2017-11-17T23:22:15.567Z,95488.05
2017-11-17T23:24:43.106Z,95487.11
2017-11-17T23:27:11.524Z,95487.81
2017-11-17T23:29:39.137Z,95487.08
2017-11-17T23:32:06.838Z,95493.12
2017-11-17T23:34:34.390Z,95490.84
2017-11-17T23:37:01.964Z,95493.04
2017-11-17T23:39:29.720Z,95486.13
2017-11-17T23:41:57.363Z,95480.66
2017-11-17T23:44:24.885Z,95485.14
2017-11-17T23:46:54.209Z,95479.03
2017-11-17T23:49:21.770Z,95476.84
2017-11-17T23:51:49.384Z,95473.84
2017-11-17T23:54:17.170Z,95482.30
2017-11-17T23:56:44.918Z,95474.76
2017-11-17T23:59:12.804Z,95471.56
